|
公曆農曆對照

機場天氣預報 (TAF)

機場天氣預報 (TAF) 載述關於某個機場在預測期內預料會出現的氣象要素。

香港天文台在 17 年 05 月 26 日 19 時 00 分最新發出的香港國際機場天氣預報

TAF VHHH 261100Z 2612/2718 08010KT 9000 FEW035 TX30/2706Z TN24/2623Z TEMPO 2705/2708 28010KT=

(下次更新時間:17年05月27日01時00分)

機場天氣預報電碼經解碼後:-

香港天文台發出 2017 年 05 月 26 日 12 協調世界時 至 2017 年 05 月 27 日 18 協調世界時 的機場天氣預報:
 

時間(協調世界時) 能見度 天氣狀況 雲層 雲層高度
2017 年 05 月 26 日 12 時 至 2017 年 05 月 27 日 18 時 東風 (080 o) 10 海里/小時 9 公里 無重要天氣狀況
1-2
3500 呎
2017 年 05 月 27 日 05 時 至 08 時 期間間中 西風 (280 o) 10 海里/小時 9 公里 無重要天氣狀況
1-2
3500 呎

時間(協調世界時) 氣溫
2017 年 05 月 27 日 06 時
最高30 oC
2017 年 05 月 26 日 23 時
最低24 oC

份: 雲層是以估計天空被雲遮蔽之總面積來評定。把天空分為八份,1 份即是八份之一的天空被雲遮蔽,2 份即是八份之二的天空被雲遮蔽,如此類推。
  0 份 = 天朗氣清,1-2 份 = 稀薄雲層,3-4 份 = 零散雲層,5-7 份 = 疏鬆雲層,8 份 = 天色陰暗。
若想進一步瞭解機場天氣預報(TAF)的編碼,請參看剖析TAF電碼的意義
若想進一步瞭解雲,請參看香港常見的雲
 
香港國際機場航空天氣報告資料 本港地區航空天氣預報
 
版權及聲明